createdAt,value
2019-04-22T00:01:05.798Z,59.79
2019-04-22T00:03:38.729Z,59.76
2019-04-22T00:06:29.317Z,59.97
2019-04-22T00:08:55.927Z,59.69
2019-04-22T00:11:29.337Z,60.11
2019-04-22T00:13:53.853Z,60.50
2019-04-22T00:16:26.400Z,60.62
2019-04-22T00:19:11.566Z,60.38
2019-04-22T00:21:21.467Z,59.65
2019-04-22T00:23:49.582Z,59.23
2019-04-22T00:26:16.399Z,59.13
2019-04-22T00:28:51.936Z,58.87
2019-04-22T00:31:28.645Z,58.98
2019-04-22T00:33:52.968Z,59.65
2019-04-22T00:36:23.667Z,59.96
2019-04-22T00:38:54.287Z,60.06
2019-04-22T00:41:25.425Z,60.44
2019-04-22T00:43:53.010Z,61.05
2019-04-22T00:46:23.856Z,61.29
2019-04-22T00:48:57.508Z,61.16
2019-04-22T00:53:42.867Z,61.38
2019-04-22T00:56:20.260Z,61.43
2019-04-22T00:58:40.629Z,61.12
2019-04-22T01:01:14.315Z,60.56
2019-04-22T01:03:44.827Z,60.49
2019-04-22T01:06:14.818Z,60.99
2019-04-22T01:08:40.308Z,61.21
2019-04-22T01:11:14.963Z,61.74
2019-04-22T01:13:30.534Z,62.15
2019-04-22T01:16:04.474Z,62.59
2019-04-22T01:18:34.594Z,62.39
2019-04-22T01:23:28.154Z,62.72
2019-04-22T01:25:55.101Z,62.35
2019-04-22T01:28:20.159Z,62.54
2019-04-22T01:30:44.095Z,63.63
2019-04-22T01:33:11.992Z,63.89
2019-04-22T01:35:49.318Z,63.83
2019-04-22T01:38:22.528Z,63.95
2019-04-22T01:41:04.574Z,64.81
2019-04-22T01:43:33.622Z,65.17
2019-04-22T01:46:04.528Z,65.14
2019-04-22T01:48:30.810Z,65.06
2019-04-22T01:50:49.901Z,64.51
2019-04-22T01:53:24.441Z,64.25
2019-04-22T01:55:53.357Z,63.99
2019-04-22T01:58:10.998Z,64.03
2019-04-22T02:00:53.762Z,64.12
2019-04-22T02:03:19.041Z,64.04
2019-04-22T02:05:43.910Z,64.35
2019-04-22T02:08:25.575Z,64.87
2019-04-22T02:10:50.852Z,64.71
2019-04-22T02:13:15.634Z,64.98
2019-04-22T02:15:48.727Z,65.34
2019-04-22T02:18:17.899Z,65.73
2019-04-22T02:20:40.598Z,65.78
2019-04-22T02:26:01.145Z,65.79
2019-04-22T02:28:38.312Z,65.53
2019-04-22T02:41:16.028Z,65.47
2019-04-22T02:46:19.144Z,65.45
2019-04-22T02:48:48.229Z,65.33
2019-04-22T02:53:59.293Z,65.38
2019-04-22T02:56:08.208Z,66.48
2019-04-22T02:58:27.283Z,67.23
2019-04-22T03:01:01.219Z,67.49
2019-04-22T03:05:56.819Z,67.52
2019-04-22T03:10:56.579Z,67.89
2019-04-22T03:13:29.346Z,67.86
2019-04-22T03:15:54.956Z,67.91
2019-04-22T03:18:27.322Z,68.21
2019-04-22T03:20:42.856Z,68.39
2019-04-22T03:23:25.406Z,68.71
2019-04-22T03:28:04.663Z,69.40
2019-04-22T03:33:23.471Z,69.14
2019-04-22T03:38:19.374Z,70.63
2019-04-22T03:40:37.328Z,70.54
2019-04-22T03:43:04.979Z,70.89
2019-04-22T03:48:02.810Z,70.69
2019-04-22T03:55:41.815Z,70.96
2019-04-22T03:57:57.024Z,71.35
2019-04-22T04:03:01.074Z,71.69
2019-04-22T04:05:41.756Z,71.36
2019-04-22T04:10:35.372Z,71.55
2019-04-22T04:15:23.653Z,71.00
2019-04-22T04:17:54.983Z,71.04
2019-04-22T04:21:01.323Z,70.64
2019-04-22T04:35:27.869Z,69.78
2019-04-22T04:42:54.324Z,70.08
2019-04-22T04:45:33.745Z,70.16
2019-04-22T04:50:15.872Z,70.31
2019-04-22T05:02:48.932Z,69.16
2019-04-22T05:05:12.973Z,69.45
2019-04-22T05:07:48.535Z,69.01
2019-04-22T05:15:11.992Z,67.65
2019-04-22T05:17:43.916Z,67.24
2019-04-22T05:20:05.270Z,66.39
2019-04-22T05:22:33.605Z,66.01
2019-04-22T05:25:05.941Z,65.32
2019-04-22T05:32:24.449Z,62.97
2019-04-22T05:34:53.004Z,62.83
2019-04-22T05:37:27.516Z,62.16
2019-04-22T05:39:51.364Z,61.35
2019-04-22T05:42:21.717Z,59.91
2019-04-22T05:44:49.743Z,58.63
2019-04-22T05:47:19.435Z,58.57
2019-04-22T05:49:41.515Z,57.34
2019-04-22T05:52:19.284Z,56.44
2019-04-22T05:54:50.488Z,54.73
2019-04-22T05:57:14.598Z,54.96
2019-04-22T05:59:46.268Z,55.20
2019-04-22T06:02:13.632Z,54.11
2019-04-22T06:04:37.128Z,51.98
2019-04-22T06:07:06.626Z,51.92
2019-04-22T06:09:32.624Z,52.35
2019-04-22T06:12:05.000Z,52.12
2019-04-22T06:14:40.771Z,51.98
2019-04-22T06:17:11.249Z,51.74
2019-04-22T06:19:42.437Z,51.07
2019-04-22T06:22:09.090Z,50.27
2019-04-22T06:24:38.862Z,49.73
2019-04-22T06:27:08.011Z,49.63
2019-04-22T06:29:41.402Z,49.68
2019-04-22T06:34:28.882Z,47.05
2019-04-22T06:37:11.916Z,46.21
2019-04-22T06:39:30.783Z,46.27
2019-04-22T06:42:06.866Z,45.64
2019-04-22T06:44:26.077Z,45.45
2019-04-22T06:46:52.618Z,44.80
2019-04-22T06:49:26.732Z,44.90
2019-04-22T06:51:53.737Z,43.91
2019-04-22T06:54:23.408Z,44.05
2019-04-22T06:56:53.289Z,44.31
2019-04-22T06:59:15.963Z,43.67
2019-04-22T07:01:46.873Z,43.59
2019-04-22T07:04:09.251Z,43.87
2019-04-22T07:09:30.151Z,43.84
2019-04-22T07:11:36.662Z,41.99
2019-04-22T07:14:04.256Z,41.44
2019-04-22T07:16:38.102Z,41.78
2019-04-22T07:21:30.842Z,41.08
2019-04-22T07:24:24.242Z,40.50
2019-04-22T07:26:29.029Z,39.64
2019-04-22T07:29:01.472Z,39.05
2019-04-22T07:31:50.879Z,38.57
2019-04-22T07:34:08.089Z,37.02
2019-04-22T07:39:04.257Z,37.87
2019-04-22T07:41:31.760Z,38.33
2019-04-22T07:46:33.553Z,37.72
2019-04-22T07:49:00.015Z,37.83
2019-04-22T07:51:28.248Z,37.49
2019-04-22T07:53:56.291Z,37.73
2019-04-22T07:56:24.718Z,38.00
2019-04-22T07:58:55.652Z,37.52
2019-04-22T08:01:39.876Z,38.04
2019-04-22T08:03:59.853Z,37.53
2019-04-22T08:08:58.284Z,36.68
2019-04-22T08:11:32.663Z,37.61
2019-04-22T08:13:58.713Z,37.61
2019-04-22T08:16:16.532Z,37.93
2019-04-22T08:18:46.036Z,37.32
2019-04-22T08:21:13.702Z,36.19
2019-04-22T08:23:52.542Z,35.61
2019-04-22T08:26:13.450Z,36.26
2019-04-22T08:28:46.018Z,35.88
2019-04-22T08:31:18.565Z,34.95
2019-04-22T08:33:46.588Z,34.47
2019-04-22T08:38:53.920Z,34.67
2019-04-22T08:41:27.232Z,35.47
2019-04-22T08:43:56.213Z,35.32
2019-04-22T08:46:25.327Z,33.95
2019-04-22T08:48:57.761Z,32.31
2019-04-22T08:51:28.215Z,33.98
2019-04-22T08:56:29.352Z,34.07
2019-04-22T08:59:00.035Z,31.08
2019-04-22T09:03:52.661Z,33.00
2019-04-22T09:09:01.950Z,32.77
2019-04-22T09:11:35.618Z,31.19
2019-04-22T09:16:33.172Z,31.42
2019-04-22T09:19:03.204Z,32.57
2019-04-22T09:21:32.822Z,31.35
2019-04-22T09:24:06.842Z,31.92
2019-04-22T09:26:34.733Z,32.33
2019-04-22T09:28:59.939Z,31.79
2019-04-22T09:31:24.019Z,31.34
2019-04-22T09:33:59.609Z,32.31
2019-04-22T09:36:35.204Z,32.69
2019-04-22T09:39:00.650Z,31.47
2019-04-22T09:41:33.334Z,30.95
2019-04-22T09:43:56.637Z,31.56
2019-04-22T09:46:33.105Z,30.25
2019-04-22T09:49:05.233Z,30.43
2019-04-22T09:51:26.887Z,29.73
2019-04-22T09:54:04.081Z,27.67
2019-04-22T09:56:27.935Z,28.06
2019-04-22T10:06:29.297Z,26.18
2019-04-22T10:09:02.105Z,24.88
2019-04-22T10:11:23.613Z,24.73
2019-04-22T10:16:17.561Z,24.26
2019-04-22T10:18:49.106Z,24.08
2019-04-22T10:21:17.178Z,24.66
2019-04-22T10:24:00.291Z,25.34
2019-04-22T10:26:39.398Z,25.34
2019-04-22T10:29:10.736Z,25.31
2019-04-22T10:34:03.871Z,25.44
2019-04-22T10:36:19.505Z,25.01
2019-04-22T10:38:46.678Z,25.40
2019-04-22T10:41:14.393Z,25.41
2019-04-22T10:43:41.619Z,25.19
2019-04-22T10:46:10.324Z,25.76
2019-04-22T10:48:37.483Z,26.17
2019-04-22T10:51:04.681Z,24.68
2019-04-22T10:53:33.563Z,25.37
2019-04-22T10:56:03.037Z,25.55
2019-04-22T10:58:32.749Z,25.78
2019-04-22T11:01:00.379Z,26.08
2019-04-22T11:03:28.258Z,24.96
2019-04-22T11:05:56.958Z,24.79
2019-04-22T11:08:38.595Z,25.78
2019-04-22T11:11:16.698Z,25.09
2019-04-22T11:13:29.103Z,24.58
2019-04-22T11:15:56.313Z,24.28
2019-04-22T11:18:23.317Z,24.48
2019-04-22T11:20:51.479Z,24.13
2019-04-22T11:23:18.744Z,24.82
2019-04-22T11:25:46.173Z,23.97
2019-04-22T11:28:13.704Z,24.56
2019-04-22T11:30:42.676Z,23.94
2019-04-22T11:33:09.740Z,24.37
2019-04-22T11:35:37.517Z,23.73
2019-04-22T11:38:04.694Z,24.73
2019-04-22T11:40:37.860Z,24.21
2019-04-22T11:43:01.787Z,24.29
2019-04-22T11:45:29.221Z,23.65
2019-04-22T11:47:57.250Z,23.89
2019-04-22T11:50:27.968Z,23.20
2019-04-22T11:52:55.361Z,23.52
2019-04-22T11:55:24.481Z,23.96
2019-04-22T11:57:52.146Z,24.17
2019-04-22T12:00:25.192Z,24.18
2019-04-22T12:02:52.314Z,23.37
2019-04-22T12:05:19.686Z,24.16
2019-04-22T12:07:48.874Z,23.72
2019-04-22T12:10:29.913Z,23.68
2019-04-22T12:12:49.610Z,23.30
2019-04-22T12:15:17.077Z,23.72
2019-04-22T12:17:44.520Z,24.48
2019-04-22T12:20:14.555Z,24.43
2019-04-22T12:22:42.947Z,24.23
2019-04-22T12:25:12.465Z,24.55
2019-04-22T12:27:41.048Z,23.96
2019-04-22T12:30:09.197Z,24.38
2019-04-22T12:32:36.048Z,24.10
2019-04-22T12:35:03.416Z,24.28
2019-04-22T12:37:36.039Z,24.43
2019-04-22T12:40:00.389Z,24.58
2019-04-22T12:42:27.310Z,24.08
2019-04-22T12:44:54.347Z,24.35
2019-04-22T12:47:22.340Z,23.47
2019-04-22T12:49:55.327Z,23.40
2019-04-22T12:52:30.554Z,23.01
2019-04-22T12:54:47.131Z,22.64
2019-04-22T12:57:14.740Z,22.96
2019-04-22T12:59:43.791Z,22.57
2019-04-22T13:02:11.232Z,23.01
2019-04-22T13:04:38.515Z,22.71
2019-04-22T13:07:06.109Z,22.70
2019-04-22T13:09:33.554Z,22.61
2019-04-22T13:12:01.227Z,23.01
2019-04-22T13:14:28.534Z,23.37
2019-04-22T13:16:55.705Z,22.99
2019-04-22T13:19:23.487Z,21.76
2019-04-22T13:21:51.342Z,21.84
2019-04-22T13:24:20.099Z,21.75
2019-04-22T13:26:48.521Z,21.73
2019-04-22T13:29:16.869Z,21.80
2019-04-22T13:31:46.589Z,23.18
2019-04-22T13:34:21.404Z,22.70
2019-04-22T13:36:46.738Z,23.07
2019-04-22T13:39:13.690Z,23.74
2019-04-22T13:41:48.790Z,23.87
2019-04-22T13:44:09.956Z,24.10
2019-04-22T13:46:38.397Z,24.70
2019-04-22T13:49:31.083Z,24.83
2019-04-22T13:56:51.822Z,25.58
2019-04-22T13:59:13.647Z,25.36
2019-04-22T14:01:43.048Z,25.48
2019-04-22T14:04:16.358Z,25.68
2019-04-22T14:06:44.546Z,25.50
2019-04-22T14:09:13.561Z,25.45
2019-04-22T14:11:49.713Z,26.04
2019-04-22T14:14:12.680Z,26.20
2019-04-22T14:16:40.806Z,26.48
2019-04-22T14:19:07.974Z,26.16
2019-04-22T14:21:34.855Z,26.02
2019-04-22T14:24:02.699Z,26.25
2019-04-22T14:26:44.157Z,26.75
2019-04-22T14:29:04.212Z,26.21
2019-04-22T14:31:34.424Z,26.21
2019-04-22T14:34:05.312Z,25.83
2019-04-22T14:36:33.078Z,26.03
2019-04-22T14:39:00.095Z,26.27
2019-04-22T14:41:43.557Z,26.54
2019-04-22T14:44:56.457Z,26.52
2019-04-22T14:46:58.724Z,26.17
2019-04-22T14:49:24.302Z,26.17
2019-04-22T14:51:46.438Z,26.27
2019-04-22T14:54:09.715Z,26.27
2019-04-22T14:56:22.449Z,25.91
2019-04-22T14:58:50.862Z,24.41
2019-04-22T15:01:19.071Z,25.21
2019-04-22T15:03:48.339Z,25.66
2019-04-22T15:06:15.909Z,24.69
2019-04-22T15:08:44.975Z,24.23
2019-04-22T15:11:13.163Z,24.14
2019-04-22T15:13:41.187Z,25.02
2019-04-22T15:16:28.245Z,25.82
2019-04-22T15:19:03.748Z,25.19
2019-04-22T15:21:32.360Z,26.12
2019-04-22T15:24:22.795Z,26.68
2019-04-22T15:26:56.542Z,26.94
2019-04-22T15:29:25.351Z,26.89
2019-04-22T15:31:55.690Z,26.78
2019-04-22T15:34:22.940Z,27.68
2019-04-22T15:36:50.634Z,28.50
2019-04-22T15:39:18.639Z,28.90
2019-04-22T15:41:56.064Z,29.23
2019-04-22T15:44:15.208Z,28.36
2019-04-22T15:46:42.644Z,28.93
2019-04-22T15:49:16.078Z,28.56
2019-04-22T15:52:02.158Z,28.97
2019-04-22T15:54:27.925Z,29.34
2019-04-22T15:56:54.906Z,29.65
2019-04-22T15:59:38.875Z,30.20
2019-04-22T16:01:52.431Z,30.54
2019-04-22T16:04:20.962Z,31.20
2019-04-22T16:06:49.463Z,31.15
2019-04-22T16:09:17.342Z,31.93
2019-04-22T16:11:45.653Z,32.33
2019-04-22T16:14:15.142Z,32.29
2019-04-22T16:16:42.938Z,33.21
2019-04-22T16:19:09.841Z,33.34
2019-04-22T16:21:49.038Z,33.66
2019-04-22T16:24:32.116Z,34.39
2019-04-22T16:27:18.700Z,34.73
2019-04-22T16:29:45.539Z,34.52
2019-04-22T16:32:13.648Z,35.00
2019-04-22T16:34:40.672Z,35.78
2019-04-22T16:37:07.490Z,35.98
2019-04-22T16:39:34.266Z,36.17
2019-04-22T16:42:02.466Z,35.96
2019-04-22T16:44:30.530Z,36.07
2019-04-22T16:46:57.467Z,35.93
2019-04-22T16:49:25.453Z,36.10
2019-04-22T16:51:56.057Z,36.27
2019-04-22T16:54:24.383Z,36.53
2019-04-22T16:56:52.283Z,36.92
2019-04-22T16:59:19.118Z,36.24
2019-04-22T17:02:06.409Z,35.67
2019-04-22T17:04:57.750Z,35.77
2019-04-22T17:07:24.642Z,36.00
2019-04-22T17:09:57.666Z,36.27
2019-04-22T17:12:37.783Z,36.46
2019-04-22T17:15:00.032Z,36.28
2019-04-22T17:17:22.346Z,35.28
2019-04-22T17:19:49.339Z,34.21
2019-04-22T17:22:17.497Z,34.18
2019-04-22T17:24:45.782Z,34.63
2019-04-22T17:27:12.860Z,34.23
2019-04-22T17:29:41.054Z,34.54
2019-04-22T17:32:13.126Z,35.00
2019-04-22T17:34:39.187Z,35.21
2019-04-22T17:37:12.713Z,35.60
2019-04-22T17:39:45.366Z,35.36
2019-04-22T17:42:35.583Z,35.75
2019-04-22T17:45:15.784Z,35.94
2019-04-22T17:48:04.302Z,36.04
2019-04-22T17:50:37.921Z,36.29
2019-04-22T17:53:08.641Z,36.64
2019-04-22T17:55:38.449Z,37.12
2019-04-22T17:58:04.236Z,37.51
2019-04-22T18:00:25.438Z,37.92
2019-04-22T18:02:52.040Z,38.01
2019-04-22T18:05:13.024Z,38.49
2019-04-22T18:08:02.631Z,38.85
2019-04-22T18:10:33.081Z,39.15
2019-04-22T18:13:06.987Z,39.47
2019-04-22T18:15:23.982Z,39.86
2019-04-22T18:18:01.026Z,40.14
2019-04-22T18:20:22.600Z,40.07
2019-04-22T18:22:46.245Z,40.36
2019-04-22T18:25:16.369Z,40.40
2019-04-22T18:28:00.677Z,40.42
2019-04-22T18:30:18.024Z,40.72
2019-04-22T18:32:53.302Z,40.73
2019-04-22T18:35:15.528Z,40.83
2019-04-22T18:37:50.052Z,41.06
2019-04-22T18:40:14.969Z,41.14
2019-04-22T18:42:53.599Z,41.45
2019-04-22T18:45:29.687Z,41.65
2019-04-22T18:47:41.436Z,41.67
2019-04-22T18:50:08.805Z,42.01
2019-04-22T18:53:07.076Z,42.06
2019-04-22T18:55:44.257Z,42.41
2019-04-22T18:58:16.605Z,42.51
2019-04-22T19:00:31.750Z,42.77
2019-04-22T19:03:03.877Z,42.99
2019-04-22T19:05:45.463Z,43.22
2019-04-22T19:08:23.244Z,43.29
2019-04-22T19:15:54.207Z,43.83
2019-04-22T19:18:24.233Z,43.81
2019-04-22T19:20:51.343Z,43.95
2019-04-22T19:23:17.702Z,44.27
2019-04-22T19:25:42.322Z,44.35
2019-04-22T19:28:27.410Z,44.46
2019-04-22T19:30:48.201Z,44.73
2019-04-22T19:33:19.191Z,44.74
2019-04-22T19:35:42.829Z,45.02
2019-04-22T19:38:11.665Z,45.09
2019-04-22T19:40:55.406Z,45.09
2019-04-22T19:43:18.710Z,45.31
2019-04-22T19:45:44.449Z,45.57
2019-04-22T19:48:25.091Z,45.63
2019-04-22T19:50:50.444Z,45.89
2019-04-22T19:53:10.124Z,45.98
2019-04-22T19:55:43.736Z,46.31
2019-04-22T19:58:07.251Z,46.36
2019-04-22T20:00:53.571Z,46.52
2019-04-22T20:03:52.314Z,46.42
2019-04-22T20:06:21.995Z,46.50
2019-04-22T20:08:57.316Z,46.52
2019-04-22T20:11:23.249Z,46.64
2019-04-22T20:14:01.293Z,46.58
2019-04-22T20:16:20.725Z,46.60
2019-04-22T20:18:52.384Z,46.49
2019-04-22T20:21:22.292Z,46.64
2019-04-22T20:23:39.088Z,46.53
2019-04-22T20:26:07.305Z,46.64
2019-04-22T20:28:49.206Z,46.88
2019-04-22T20:31:14.102Z,47.19
2019-04-22T20:33:44.517Z,47.44
2019-04-22T20:36:26.905Z,47.38
2019-04-22T20:38:42.498Z,47.31
2019-04-22T20:41:05.534Z,47.58
2019-04-22T20:43:43.285Z,47.55
2019-04-22T20:46:06.276Z,47.67
2019-04-22T20:48:40.880Z,47.85
2019-04-22T20:51:04.168Z,47.80
2019-04-22T20:53:36.468Z,48.01
2019-04-22T20:56:00.722Z,48.12
2019-04-22T20:58:28.543Z,48.17
2019-04-22T21:00:50.571Z,48.58
2019-04-22T21:03:17.468Z,48.70
2019-04-22T21:05:47.191Z,48.93
2019-04-22T21:08:24.464Z,49.18
2019-04-22T21:10:45.596Z,49.31
2019-04-22T21:13:13.992Z,49.86
2019-04-22T21:15:49.446Z,50.01
2019-04-22T21:18:15.410Z,50.36
2019-04-22T21:20:54.438Z,50.91
2019-04-22T21:23:13.952Z,50.76
2019-04-22T21:25:35.852Z,50.63
2019-04-22T21:28:14.469Z,50.75
2019-04-22T21:30:37.269Z,50.08
2019-04-22T21:33:08.294Z,50.31
2019-04-22T21:35:53.986Z,50.42
2019-04-22T21:38:09.774Z,50.36
2019-04-22T21:40:34.426Z,50.13
2019-04-22T21:43:13.367Z,50.49
2019-04-22T21:45:28.129Z,50.16
2019-04-22T21:48:18.104Z,50.04
2019-04-22T21:50:41.480Z,49.86
2019-04-22T21:53:07.299Z,49.92
2019-04-22T21:55:37.486Z,49.72
2019-04-22T21:58:16.061Z,49.86
2019-04-22T22:00:53.509Z,50.03
2019-04-22T22:03:13.046Z,50.23
2019-04-22T22:05:34.202Z,50.36
2019-04-22T22:08:05.605Z,50.48
2019-04-22T22:10:39.867Z,50.71
2019-04-22T22:13:08.708Z,50.89
2019-04-22T22:15:35.050Z,51.04
2019-04-22T22:18:02.264Z,51.28
2019-04-22T22:20:36.010Z,51.37
2019-04-22T22:23:11.997Z,51.67
2019-04-22T22:25:32.034Z,51.78
2019-04-22T22:27:58.674Z,52.15
2019-04-22T22:30:41.558Z,52.22
2019-04-22T22:33:01.273Z,52.28
2019-04-22T22:35:26.671Z,52.48
2019-04-22T22:37:50.415Z,52.36
2019-04-22T22:40:10.696Z,52.61
2019-04-22T22:42:38.667Z,52.65
2019-04-22T22:45:10.648Z,53.06
2019-04-22T22:47:44.576Z,53.17
2019-04-22T22:50:15.970Z,53.51
2019-04-22T22:55:20.243Z,54.12
2019-04-22T22:57:44.302Z,54.31
2019-04-22T23:00:11.847Z,54.51
2019-04-22T23:02:47.242Z,54.89
2019-04-22T23:05:09.674Z,55.08
2019-04-22T23:07:40.894Z,55.39
2019-04-22T23:10:09.317Z,55.56
2019-04-22T23:12:55.810Z,55.95
2019-04-22T23:15:04.690Z,55.98
2019-04-22T23:17:18.787Z,56.36
2019-04-22T23:19:48.695Z,56.43
2019-04-22T23:22:20.350Z,56.64
2019-04-22T23:25:01.741Z,56.88
2019-04-22T23:27:34.174Z,57.03
2019-04-22T23:30:02.390Z,57.17
2019-04-22T23:32:31.804Z,57.38
2019-04-22T23:35:10.054Z,57.51
2019-04-22T23:37:39.367Z,57.53
2019-04-22T23:40:16.075Z,57.42
2019-04-22T23:42:33.804Z,57.48
2019-04-22T23:45:09.512Z,57.41
2019-04-22T23:47:31.001Z,57.62
2019-04-22T23:50:17.987Z,57.85
2019-04-22T23:52:43.324Z,58.33
2019-04-22T23:55:09.898Z,58.29
2019-04-22T23:57:42.132Z,58.49
